Time;durP1;ratioP1;P1;durP2;ratioP2;P2;SDS_P1;SDS_P2;PMS_P1;PMS_P2;Temp;Humidity;BMP_temperature;BMP_pressure;BME280_temperature;BME280_humidity;BME280_pressure;Samples;Min_cycle;Max_cycle;Signal;HPM_P1;HPM_P2
2023/07/04 00:04:41;;;;;;;0.05;0.05;;;;;;;-145.06;100.00;63404.56;10307842;28;20042;-74
2023/07/04 00:09:43;;;;;;;0.10;0.10;;;;;;;-145.06;100.00;63404.56;10308787;28;20022;-74
2023/07/04 00:14:44;;;;;;;0.10;0.10;;;;;;;-145.06;100.00;63404.56;10334205;28;20036;-74
2023/07/04 00:19:44;;;;;;;0.10;0.10;;;;;;;-145.06;100.00;63404.56;10326396;28;20475;-74
2023/07/04 00:24:45;;;;;;;0.10;0.10;;;;;;;-145.06;100.00;63404.56;10326260;28;20459;-73
2023/07/04 00:29:45;;;;;;;0.10;0.10;;;;;;;-145.06;100.00;63404.56;10332710;28;20391;-74
2023/07/04 00:34:45;;;;;;;0.10;0.10;;;;;;;-145.06;100.00;63404.56;10311898;28;20092;-73
2023/07/04 00:39:45;;;;;;;0.10;0.10;;;;;;;-145.06;100.00;63404.56;10324527;28;20022;-73
2023/07/04 00:44:54;;;;;;;0.10;0.10;;;;;;;-145.06;100.00;63404.56;10309350;28;20022;-73
2023/07/04 00:49:59;;;;;;;0.10;0.10;;;;;;;-145.06;100.00;63404.56;10339469;28;20048;-73
2023/07/04 00:55:10;;;;;;;0.00;0.00;;;;;;;-145.06;100.00;63404.56;10331073;28;20498;-73
2023/07/04 01:00:18;;;;;;;0.10;0.10;;;;;;;-145.06;100.00;63404.56;10330905;28;20048;-73
2023/07/04 01:05:29;;;;;;;0.00;0.00;;;;;;;-145.06;100.00;63404.56;10314511;28;20380;-73
2023/07/04 01:10:35;;;;;;;0.10;0.10;;;;;;;-145.06;100.00;63404.56;10337070;28;20372;-73
2023/07/04 01:15:35;;;;;;;0.10;0.10;;;;;;;-145.06;100.00;63404.56;10329112;28;20040;-73
2023/07/04 01:20:36;;;;;;;0.10;0.10;;;;;;;-145.06;100.00;63404.56;10331102;28;20034;-73
2023/07/04 01:26:01;;;;;;;0.10;0.10;;;;;;;-145.06;100.00;63404.56;10310933;28;20014;-73
2023/07/04 01:31:04;;;;;;;0.10;0.10;;;;;;;-145.06;100.00;63404.56;10323368;28;20396;-73
2023/07/04 01:36:07;;;;;;;0.10;0.10;;;;;;;-145.06;100.00;63404.56;10338485;28;20398;-73
2023/07/04 01:41:08;;;;;;;0.10;0.10;;;;;;;-145.06;100.00;63404.56;10333660;28;20109;-73
2023/07/04 01:46:08;;;;;;;0.10;0.10;;;;;;;-145.06;100.00;63404.56;10332649;28;20114;-73
2023/07/04 01:51:08;;;;;;;0.10;0.10;;;;;;;-145.06;100.00;63404.56;10323599;28;20379;-73
2023/07/04 01:56:08;;;;;;;0.10;0.10;;;;;;;-145.06;100.00;63404.56;10313984;28;20562;-73
2023/07/04 02:01:09;;;;;;;0.10;0.10;;;;;;;-145.06;100.00;63404.56;10332012;28;20447;-73
2023/07/04 02:06:09;;;;;;;0.00;0.00;;;;;;;-145.06;100.00;63404.56;10335356;28;20080;-73
2023/07/04 02:11:10;;;;;;;0.00;0.00;;;;;;;-145.06;100.00;63404.56;10354312;28;20038;-73
2023/07/04 02:16:10;;;;;;;0.10;0.10;;;;;;;-145.06;100.00;63404.56;10334658;28;20024;-73
2023/07/04 02:21:11;;;;;;;0.10;0.10;;;;;;;-145.06;100.00;63404.56;10331848;28;20018;-73
2023/07/04 02:26:12;;;;;;;0.10;0.10;;;;;;;-145.06;100.00;63404.56;10335707;28;20060;-72
2023/07/04 02:31:13;;;;;;;0.00;0.00;;;;;;;-145.06;100.00;63404.56;10335799;28;20024;-73
2023/07/04 02:36:14;;;;;;;0.00;0.00;;;;;;;-145.06;100.00;63404.56;10334916;28;20037;-73
2023/07/04 02:41:14;;;;;;;0.10;0.10;;;;;;;-145.06;100.00;63404.56;10342999;28;20368;-73
2023/07/04 02:46:14;;;;;;;0.03;0.03;;;;;;;-145.06;100.00;63404.56;10342726;28;20371;-72
2023/07/04 02:51:15;;;;;;;0.10;0.10;;;;;;;-145.06;100.00;63404.56;10350339;28;20030;-72
2023/07/04 02:56:15;;;;;;;0.10;0.10;;;;;;;-145.06;100.00;63404.56;10335506;28;20272;-73
2023/07/04 03:01:16;;;;;;;0.10;0.10;;;;;;;-145.06;100.00;63404.56;10438797;22;20057;-75
2023/07/04 03:06:17;;;;;;;0.10;0.10;;;;;;;-145.06;100.00;63404.56;10409136;28;20048;-74
2023/07/04 03:11:17;;;;;;;0.10;0.10;;;;;;;-145.06;100.00;63404.56;10418401;28;20127;-74
2023/07/04 03:16:18;;;;;;;0.03;0.03;;;;;;;-145.06;100.00;63404.56;10404549;28;20094;-75
2023/07/04 03:21:20;;;;;;;0.07;0.07;;;;;;;-145.06;100.00;63404.56;10411554;28;20021;-75
2023/07/04 03:26:21;;;;;;;0.10;0.10;;;;;;;-145.06;100.00;63404.56;10408474;28;20299;-73
2023/07/04 03:31:21;;;;;;;0.10;0.10;;;;;;;-145.06;100.00;63404.56;10417708;28;20064;-73
2023/07/04 03:36:21;;;;;;;0.10;0.10;;;;;;;-145.06;100.00;63404.56;10414004;28;20508;-73
2023/07/04 03:41:22;;;;;;;0.10;0.10;;;;;;;-145.06;100.00;63404.56;10411643;28;20101;-73
2023/07/04 03:46:28;;;;;;;0.10;0.10;;;;;;;-145.06;100.00;63404.56;10410561;28;20025;-73
2023/07/04 03:51:29;;;;;;;0.10;0.10;;;;;;;-145.06;100.00;63404.56;10421390;28;20071;-73
2023/07/04 03:56:29;;;;;;;0.10;0.10;;;;;;;-145.06;100.00;63404.56;10413055;28;20116;-73
2023/07/04 04:01:29;;;;;;;0.10;0.10;;;;;;;-145.06;100.00;63404.56;10387454;28;20058;-73
2023/07/04 04:06:30;;;;;;;0.10;0.10;;;;;;;-145.06;100.00;63404.56;10424032;28;20400;-73
2023/07/04 04:11:30;;;;;;;0.07;0.07;;;;;;;-145.06;100.00;63404.56;10425169;28;20271;-73
2023/07/04 04:16:30;;;;;;;0.10;0.10;;;;;;;-145.06;100.00;63404.56;10420111;28;20021;-73
2023/07/04 04:21:31;;;;;;;0.10;0.10;;;;;;;-145.06;100.00;63404.56;10416412;28;20020;-73
2023/07/04 04:26:38;;;;;;;0.10;0.10;;;;;;;-145.06;100.00;63404.56;10420820;28;20421;-74
2023/07/04 04:31:39;;;;;;;0.10;0.10;;;;;;;-145.06;100.00;63404.56;10427522;28;20048;-73
2023/07/04 04:36:39;;;;;;;0.00;0.00;;;;;;;-145.06;100.00;63404.56;10419728;28;20021;-73
2023/07/04 04:41:41;;;;;;;0.10;0.10;;;;;;;-145.06;100.00;63404.56;10414157;28;20143;-73
2023/07/04 04:46:48;;;;;;;0.10;0.10;;;;;;;-145.06;100.00;63404.56;10426210;28;20425;-73
2023/07/04 04:51:51;;;;;;;0.10;0.10;;;;;;;-145.06;100.00;63404.56;10416206;28;20017;-74
2023/07/04 04:56:52;;;;;;;0.00;0.00;;;;;;;-145.06;100.00;63404.56;10418520;28;20482;-73
2023/07/04 05:01:52;;;;;;;0.00;0.00;;;;;;;-145.06;100.00;63404.56;10415295;28;20025;-73
2023/07/04 05:06:53;;;;;;;0.00;0.00;;;;;;;-145.06;100.00;63404.56;10415280;28;20026;-73
2023/07/04 05:11:53;;;;;;;0.10;0.10;;;;;;;-145.06;100.00;63404.56;10421021;28;20021;-74
2023/07/04 05:16:53;;;;;;;0.05;0.05;;;;;;;-145.06;100.00;63404.56;10416084;28;20030;-73
2023/07/04 05:21:54;;;;;;;0.00;0.00;;;;;;;-145.06;100.00;63404.56;10422817;28;20025;-74
2023/07/04 05:26:54;;;;;;;0.10;0.10;;;;;;;-145.06;100.00;63404.56;10417199;28;20032;-74
2023/07/04 05:31:54;;;;;;;0.00;0.00;;;;;;;-145.06;100.00;63404.56;10413546;28;20030;-74
2023/07/04 05:36:54;;;;;;;0.10;0.10;;;;;;;-145.06;100.00;63404.56;10400348;28;20135;-74
2023/07/04 05:41:55;;;;;;;0.00;0.00;;;;;;;-145.06;100.00;63404.56;10411867;28;20033;-73
2023/07/04 05:46:55;;;;;;;0.00;0.00;;;;;;;-145.06;100.00;63404.56;10408584;28;20025;-73
2023/07/04 05:51:56;;;;;;;0.00;0.00;;;;;;;-145.06;100.00;63404.56;10394447;28;20104;-74
2023/07/04 05:56:56;;;;;;;0.00;0.00;;;;;;;-145.06;100.00;63404.56;10411659;28;20037;-74
2023/07/04 06:01:58;;;;;;;0.00;0.00;;;;;;;-145.06;100.00;63404.56;10400516;28;20362;-73
2023/07/04 06:06:58;;;;;;;0.10;0.10;;;;;;;-145.06;100.00;63404.56;10408435;28;20017;-73
2023/07/04 06:11:59;;;;;;;0.00;0.00;;;;;;;-145.06;100.00;63404.56;10422395;28;20373;-74
2023/07/04 06:17:02;;;;;;;0.00;0.00;;;;;;;-145.06;100.00;63404.56;10422229;28;20075;-73
2023/07/04 06:22:05;;;;;;;0.10;0.10;;;;;;;-145.06;100.00;63404.56;10420396;28;20103;-74
2023/07/04 06:27:07;;;;;;;0.10;0.10;;;;;;;-145.06;100.00;63404.56;10417031;28;20021;-74
2023/07/04 06:32:08;;;;;;;;;;;;;;;-145.06;100.00;63404.56;10411696;28;20025;-74
2023/07/04 06:37:08;;;;;;;0.00;0.00;;;;;;;-145.06;100.00;63404.56;10417033;28;19913;-74
2023/07/04 06:42:08;;;;;;;0.10;0.10;;;;;;;-145.06;100.00;63404.56;10421610;28;20086;-73
2023/07/04 06:47:08;;;;;;;0.10;0.10;;;;;;;-145.06;100.00;63404.56;10405655;28;20013;-73
2023/07/04 06:52:09;;;;;;;0.10;0.10;;;;;;;-145.06;100.00;63404.56;10413265;28;20028;-73
2023/07/04 06:57:09;;;;;;;0.00;0.00;;;;;;;-145.06;100.00;63404.56;10424772;28;20032;-73
2023/07/04 07:02:09;;;;;;;0.08;0.08;;;;;;;-145.06;100.00;63404.56;10423365;28;20495;-73
2023/07/04 07:07:10;;;;;;;0.00;0.00;;;;;;;-145.06;100.00;63404.56;10410984;28;20053;-73
2023/07/04 07:12:12;;;;;;;0.00;0.00;;;;;;;-145.06;100.00;63404.56;10416898;28;20108;-73
2023/07/04 07:17:12;;;;;;;0.00;0.00;;;;;;;-145.06;100.00;63404.56;10412614;28;20030;-72
2023/07/04 07:22:13;;;;;;;0.00;0.00;;;;;;;-145.06;100.00;63404.56;10417171;28;20024;-73
2023/07/04 07:27:13;;;;;;;0.00;0.00;;;;;;;-145.06;100.00;63404.56;10423080;28;20021;-73
2023/07/04 07:32:13;;;;;;;0.10;0.10;;;;;;;-145.06;100.00;63404.56;10418671;28;20421;-72
2023/07/04 07:37:13;;;;;;;0.00;0.00;;;;;;;-145.06;100.00;63404.56;10417257;28;20021;-73
2023/07/04 07:42:14;;;;;;;0.00;0.00;;;;;;;-145.06;100.00;63404.56;10428730;28;20350;-73
2023/07/04 07:47:14;;;;;;;0.00;0.00;;;;;;;-145.06;100.00;63404.56;10421736;28;20386;-72
2023/07/04 07:52:14;;;;;;;0.00;0.00;;;;;;;-145.06;100.00;63404.56;10419589;28;20018;-72
2023/07/04 07:57:15;;;;;;;0.00;0.00;;;;;;;-145.06;100.00;63404.56;10426780;28;20034;-72
2023/07/04 08:02:15;;;;;;;0.10;0.10;;;;;;;-145.06;100.00;63404.56;10414947;28;20463;-72
2023/07/04 08:07:16;;;;;;;0.00;0.00;;;;;;;-145.06;100.00;63404.56;10409621;28;20040;-72
2023/07/04 08:12:17;;;;;;;0.00;0.00;;;;;;;-145.06;100.00;63404.56;10426028;28;20547;-72
2023/07/04 08:17:18;;;;;;;0.10;0.10;;;;;;;-145.06;100.00;63404.56;10430187;28;20127;-73
2023/07/04 08:22:18;;;;;;;0.00;0.00;;;;;;;-145.06;100.00;63404.56;10426468;28;20496;-73
2023/07/04 08:27:18;;;;;;;0.00;0.00;;;;;;;-145.06;100.00;63404.56;10417980;28;20079;-73
2023/07/04 08:32:19;;;;;;;0.00;0.00;;;;;;;-145.06;100.00;63404.56;10421936;28;20276;-73
2023/07/04 08:37:19;;;;;;;0.00;0.00;;;;;;;-145.06;100.00;63404.56;10416300;28;20079;-73
2023/07/04 08:42:21;;;;;;;0.00;0.00;;;;;;;-145.06;100.00;63404.56;10416999;28;20028;-73
2023/07/04 08:47:25;;;;;;;0.00;0.00;;;;;;;-145.06;100.00;63404.56;10416576;28;20025;-73
2023/07/04 08:52:39;;;;;;;0.00;0.00;;;;;;;-145.06;100.00;63404.56;10415395;28;20028;-74
2023/07/04 08:57:49;;;;;;;0.00;0.00;;;;;;;-145.06;100.00;63404.56;10440918;22;20045;-74
2023/07/04 09:03:08;;;;;;;0.00;0.00;;;;;;;-145.06;100.00;63404.56;10412528;28;20029;-74
2023/07/04 09:08:18;;;;;;;0.00;0.00;;;;;;;-145.06;100.00;63404.56;10430378;28;20035;-74
2023/07/04 09:13:55;;;;;;;0.00;0.00;;;;;;;-145.06;100.00;63404.56;10429760;28;20033;-74
2023/07/04 09:19:00;;;;;;;0.10;0.10;;;;;;;-145.06;100.00;63404.56;10379985;28;20084;-75
2023/07/04 09:24:04;;;;;;;0.00;0.00;;;;;;;-145.06;100.00;63404.56;10422289;28;20461;-74
2023/07/04 09:29:07;;;;;;;0.00;0.00;;;;;;;-145.06;100.00;63404.56;10413934;28;20322;-75
2023/07/04 09:34:14;;;;;;;0.00;0.00;;;;;;;-145.06;100.00;63404.56;10429124;28;20077;-75
2023/07/04 09:39:14;;;;;;;0.10;0.10;;;;;;;-145.06;100.00;63404.56;10428387;28;20052;-74
2023/07/04 09:44:16;;;;;;;0.00;0.00;;;;;;;-145.06;100.00;63404.56;10426619;28;20021;-75
2023/07/04 09:49:26;;;;;;;0.00;0.00;;;;;;;-145.06;100.00;63404.56;10404105;28;20029;-75
2023/07/04 09:54:27;;;;;;;0.00;0.00;;;;;;;-145.06;100.00;63404.56;10424139;28;20155;-74
2023/07/04 09:59:27;;;;;;;0.00;0.00;;;;;;;-145.06;100.00;63404.56;10414562;28;20017;-75
2023/07/04 10:04:36;;;;;;;0.00;0.00;;;;;;;-145.06;100.00;63404.56;10424070;28;20025;-74
2023/07/04 10:09:43;;;;;;;0.00;0.00;;;;;;;-145.06;100.00;63404.56;10427736;28;20021;-74
2023/07/04 10:14:55;;;;;;;0.00;0.00;;;;;;;-145.06;100.00;63404.56;10417869;28;20122;-75
2023/07/04 10:20:00;;;;;;;0.00;0.00;;;;;;;-145.06;100.00;63404.56;10430679;28;20509;-74
2023/07/04 10:25:02;;;;;;;0.00;0.00;;;;;;;-145.06;100.00;63404.56;10421762;28;20021;-73
2023/07/04 10:30:08;;;;;;;0.00;0.00;;;;;;;-145.06;100.00;63404.56;10433609;28;20510;-73
2023/07/04 10:35:14;;;;;;;0.00;0.00;;;;;;;-145.06;100.00;63404.56;10444146;28;20025;-73
2023/07/04 10:40:18;;;;;;;0.00;0.00;;;;;;;-145.06;100.00;63404.56;10432660;28;20028;-74
2023/07/04 10:45:21;;;;;;;0.00;0.00;;;;;;;-145.06;100.00;63404.56;10432732;28;20065;-76
2023/07/04 10:50:27;;;;;;;0.00;0.00;;;;;;;-145.06;100.00;63404.56;10438920;28;20040;-73
2023/07/04 10:55:36;;;;;;;0.00;0.00;;;;;;;-145.06;100.00;63404.56;10431716;28;20029;-73
2023/07/04 11:00:49;;;;;;;0.00;0.00;;;;;;;-145.06;100.00;63404.56;10440128;28;20048;-73
2023/07/04 11:05:53;;;;;;;0.10;0.10;;;;;;;-145.06;100.00;63404.56;10433106;28;20041;-75
2023/07/04 11:11:00;;;;;;;0.10;0.10;;;;;;;-145.06;100.00;63404.56;10440611;28;20515;-75
2023/07/04 11:16:06;;;;;;;0.03;0.03;;;;;;;-145.06;100.00;63404.56;10423737;28;20053;-74
2023/07/04 11:21:10;;;;;;;0.10;0.10;;;;;;;-145.06;100.00;63404.56;10421331;28;20359;-75
2023/07/04 11:26:11;;;;;;;0.00;0.00;;;;;;;-145.06;100.00;63404.56;10426436;28;20116;-74
2023/07/04 11:31:11;;;;;;;0.05;0.05;;;;;;;-145.06;100.00;63404.56;10439685;28;20024;-74
2023/07/04 11:36:25;;;;;;;0.10;0.10;;;;;;;-145.06;100.00;63404.56;10431508;28;20025;-74
2023/07/04 11:41:47;;;;;;;;;;;;;;;-145.06;100.00;63404.56;10432221;28;20013;-74
2023/07/04 11:46:58;;;;;;;0.00;0.00;;;;;;;-145.06;100.00;63404.56;10435748;28;19913;-74
2023/07/04 11:52:25;;;;;;;0.10;0.10;;;;;;;-145.06;100.00;63404.56;10434077;28;20443;-74
2023/07/04 11:57:56;;;;;;;0.10;0.10;;;;;;;-145.06;100.00;63404.56;10433113;28;20029;-75
2023/07/04 12:02:57;;;;;;;0.10;0.10;;;;;;;-145.06;100.00;63404.56;10416463;28;20028;-74
2023/07/04 12:08:04;;;;;;;0.10;0.10;;;;;;;-145.06;100.00;63404.56;10433848;28;20033;-74
2023/07/04 12:13:07;;;;;;;0.10;0.10;;;;;;;-145.06;100.00;63404.56;10437915;28;20021;-75
2023/07/04 12:18:24;;;;;;;0.00;0.00;;;;;;;-145.06;100.00;63404.56;10442021;28;20493;-74
2023/07/04 12:23:24;;;;;;;0.00;0.00;;;;;;;-145.06;100.00;63404.56;10419201;28;20045;-74
2023/07/04 12:28:27;;;;;;;0.10;0.10;;;;;;;-145.06;100.00;63404.56;10409680;28;20056;-74
2023/07/04 12:33:29;;;;;;;0.10;0.10;;;;;;;-145.06;100.00;63404.56;10428635;28;20280;-73
2023/07/04 12:38:30;;;;;;;0.10;0.10;;;;;;;-145.06;100.00;63404.56;10418427;28;20478;-73
2023/07/04 12:43:31;;;;;;;0.10;0.10;;;;;;;-145.06;100.00;63404.56;10430250;28;20064;-73
2023/07/04 12:48:32;;;;;;;0.10;0.10;;;;;;;-145.06;100.00;63404.56;10426640;28;20111;-73
2023/07/04 12:53:33;;;;;;;0.10;0.10;;;;;;;-145.06;100.00;63404.56;10410940;28;20116;-73
2023/07/04 12:58:34;;;;;;;0.00;0.00;;;;;;;-145.06;100.00;63404.56;10400506;28;1044646;-73
2023/07/04 13:03:35;;;;;;;0.10;0.10;;;;;;;-145.06;100.00;63404.56;10432845;28;20018;-73
2023/07/04 13:08:45;;;;;;;0.10;0.10;;;;;;;-145.06;100.00;63404.56;10428692;28;20029;-74
2023/07/04 13:13:49;;;;;;;0.10;0.10;;;;;;;-145.06;100.00;63404.56;10428891;28;20107;-74
2023/07/04 13:18:51;;;;;;;0.10;0.10;;;;;;;-145.06;100.00;63404.56;10424839;28;20029;-75
2023/07/04 13:23:51;;;;;;;0.10;0.10;;;;;;;-145.06;100.00;63404.56;10424682;28;20020;-75
2023/07/04 13:28:55;;;;;;;0.10;0.10;;;;;;;-145.06;100.00;63404.56;10435614;28;20572;-75
2023/07/04 13:34:09;;;;;;;0.10;0.10;;;;;;;-145.06;100.00;63404.56;10423958;28;20087;-74
2023/07/04 13:39:12;;;;;;;0.10;0.10;;;;;;;-145.06;100.00;63404.56;10420950;28;20029;-75
2023/07/04 13:44:14;;;;;;;0.10;0.10;;;;;;;-145.06;100.00;63404.56;10427739;28;20017;-74
2023/07/04 13:49:14;;;;;;;0.10;0.10;;;;;;;-145.06;100.00;63404.56;10429098;28;20291;-74
2023/07/04 13:54:15;;;;;;;0.00;0.00;;;;;;;-145.06;100.00;63404.56;10418784;28;20024;-74
2023/07/04 13:59:15;;;;;;;0.10;0.10;;;;;;;-145.06;100.00;63404.56;10420205;28;20087;-74
2023/07/04 14:04:15;;;;;;;0.00;0.00;;;;;;;-145.06;100.00;63404.56;10419554;28;20021;-74
2023/07/04 14:09:16;;;;;;;0.10;0.10;;;;;;;-145.06;100.00;63404.56;10433020;28;20108;-74
2023/07/04 14:14:16;;;;;;;0.10;0.10;;;;;;;-145.06;100.00;63404.56;10424278;28;20755;-75
2023/07/04 14:19:17;;;;;;;0.00;0.00;;;;;;;-145.06;100.00;63404.56;10433450;28;20051;-74
2023/07/04 14:24:17;;;;;;;0.00;0.00;;;;;;;-145.06;100.00;63404.56;10407537;28;20442;-75
2023/07/04 14:29:18;;;;;;;0.00;0.00;;;;;;;-145.06;100.00;63404.56;10431356;28;20076;-76
2023/07/04 14:34:20;;;;;;;0.00;0.00;;;;;;;-145.06;100.00;63404.56;10423694;28;20028;-75
2023/07/04 14:39:20;;;;;;;0.10;0.10;;;;;;;-145.06;100.00;63404.56;10418754;28;20024;-76
2023/07/04 14:44:21;;;;;;;0.10;0.10;;;;;;;-145.06;100.00;63404.56;10429174;28;20117;-74
2023/07/04 14:49:22;;;;;;;0.10;0.10;;;;;;;-145.06;100.00;63404.56;10425832;28;20013;-74
2023/07/04 14:54:22;;;;;;;0.10;0.10;;;;;;;-145.06;100.00;63404.56;10418590;28;20028;-75
2023/07/04 14:59:23;;;;;;;0.10;0.10;;;;;;;-145.06;100.00;63404.56;10434413;22;20028;-73
2023/07/04 15:04:23;;;;;;;0.10;0.10;;;;;;;-145.06;100.00;63404.56;10390921;28;20105;-73
2023/07/04 15:09:24;;;;;;;0.10;0.10;;;;;;;-145.06;100.00;63404.56;10382300;28;20089;-74
2023/07/04 15:14:24;;;;;;;0.10;0.10;;;;;;;-145.06;100.00;63404.56;10387723;28;20084;-74
2023/07/04 15:19:25;;;;;;;0.10;0.10;;;;;;;-145.06;100.00;63404.56;10390506;28;20381;-73
2023/07/04 15:24:25;;;;;;;0.10;0.10;;;;;;;-145.06;100.00;63404.56;10400750;28;20120;-73
2023/07/04 15:29:25;;;;;;;0.00;0.00;;;;;;;-145.06;100.00;63404.56;10401156;28;20028;-73
2023/07/04 15:34:26;;;;;;;0.10;0.10;;;;;;;-145.06;100.00;63404.56;10397953;28;20057;-73
2023/07/04 15:39:26;;;;;;;0.00;0.00;;;;;;;-145.06;100.00;63404.56;10402201;28;20108;-73
2023/07/04 15:44:27;;;;;;;0.10;0.10;;;;;;;-145.06;100.00;63404.56;10404637;28;20045;-73
2023/07/04 15:49:28;;;;;;;0.00;0.00;;;;;;;-145.06;100.00;63404.56;10399288;28;20443;-73
2023/07/04 15:54:28;;;;;;;0.10;0.10;;;;;;;-145.06;100.00;63404.56;10404966;28;20025;-73
2023/07/04 15:59:31;;;;;;;0.00;0.00;;;;;;;-145.06;100.00;63404.56;10396385;28;20021;-74
2023/07/04 16:04:31;;;;;;;0.10;0.10;;;;;;;-145.06;100.00;63404.56;10384268;28;20203;-74
2023/07/04 16:09:31;;;;;;;0.00;0.00;;;;;;;-145.06;100.00;63404.56;10389213;28;20048;-74
2023/07/04 16:14:32;;;;;;;0.10;0.10;;;;;;;-145.06;100.00;63404.56;10402595;28;20021;-73
2023/07/04 16:19:32;;;;;;;0.10;0.10;;;;;;;-145.06;100.00;63404.56;10396921;28;20026;-73
2023/07/04 16:24:33;;;;;;;0.00;0.00;;;;;;;-145.06;100.00;63404.56;10396921;28;20029;-73
2023/07/04 16:29:33;;;;;;;0.10;0.10;;;;;;;-145.06;100.00;63404.56;10398129;28;20061;-73
2023/07/04 16:34:33;;;;;;;0.10;0.10;;;;;;;-145.06;100.00;63404.56;10397297;28;20029;-73
2023/07/04 16:39:33;;;;;;;0.10;0.10;;;;;;;-145.06;100.00;63404.56;10394412;28;20021;-73
2023/07/04 16:44:34;;;;;;;0.00;0.00;;;;;;;-145.06;100.00;63404.56;10393623;28;20064;-73
2023/07/04 16:49:34;;;;;;;0.10;0.10;;;;;;;-145.06;100.00;63404.56;10394689;28;20367;-73
2023/07/04 16:54:34;;;;;;;0.10;0.10;;;;;;;-145.06;100.00;63404.56;10403655;28;20030;-73
2023/07/04 16:59:35;;;;;;;0.10;0.10;;;;;;;-145.06;100.00;63404.56;10402621;28;20400;-73
2023/07/04 17:04:35;;;;;;;0.10;0.10;;;;;;;-145.06;100.00;63404.56;10384566;28;20022;-73
2023/07/04 17:09:35;;;;;;;0.10;0.10;;;;;;;-145.06;100.00;63404.56;10392173;28;20029;-73
2023/07/04 17:14:36;;;;;;;0.10;0.10;;;;;;;-145.06;100.00;63404.56;10402506;28;20033;-74
2023/07/04 17:19:36;;;;;;;0.10;0.10;;;;;;;-145.06;100.00;63404.56;10383124;28;20048;-73
2023/07/04 17:24:36;;;;;;;0.00;0.00;;;;;;;-145.06;100.00;63404.56;10387137;28;20441;-73
2023/07/04 17:29:37;;;;;;;0.10;0.10;;;;;;;-145.06;100.00;63404.56;10401485;28;20028;-74
2023/07/04 17:34:37;;;;;;;0.10;0.10;;;;;;;-145.06;100.00;63404.56;10389338;28;20075;-74
2023/07/04 17:39:38;;;;;;;0.00;0.00;;;;;;;-145.06;100.00;63404.56;10381629;28;20080;-73
2023/07/04 17:44:38;;;;;;;0.10;0.10;;;;;;;-145.06;100.00;63404.56;10396602;28;20018;-74
2023/07/04 17:49:38;;;;;;;0.10;0.10;;;;;;;-145.06;100.00;63404.56;10377144;28;20029;-73
2023/07/04 17:54:39;;;;;;;0.10;0.10;;;;;;;-145.06;100.00;63404.56;10379423;28;20034;-73
2023/07/04 17:59:43;;;;;;;0.10;0.10;;;;;;;-145.06;100.00;63404.56;10383338;28;20025;-73
2023/07/04 18:04:44;;;;;;;0.10;0.10;;;;;;;-145.06;100.00;63404.56;10388912;28;20025;-74
2023/07/04 18:09:49;;;;;;;0.05;0.05;;;;;;;-145.06;100.00;63404.56;10386644;28;20030;-73
2023/07/04 18:14:49;;;;;;;0.00;0.00;;;;;;;-145.06;100.00;63404.56;10403467;28;20044;-73
2023/07/04 18:19:53;;;;;;;0.00;0.00;;;;;;;-145.06;100.00;63404.56;10389403;28;20044;-73
2023/07/04 18:24:54;;;;;;;0.00;0.00;;;;;;;-145.06;100.00;63404.56;10383258;28;20048;-73
2023/07/04 18:29:55;;;;;;;0.10;0.10;;;;;;;-145.06;100.00;63404.56;10392803;28;20026;-73
2023/07/04 18:34:55;;;;;;;0.10;0.10;;;;;;;-145.06;100.00;63404.56;10384004;28;20018;-73
2023/07/04 18:39:56;;;;;;;0.10;0.10;;;;;;;-145.06;100.00;63404.56;10379683;28;20018;-73
2023/07/04 18:44:56;;;;;;;0.10;0.10;;;;;;;-145.06;100.00;63404.56;10377389;28;20131;-73
2023/07/04 18:49:57;;;;;;;0.10;0.10;;;;;;;-145.06;100.00;63404.56;10383800;28;20021;-73
2023/07/04 18:54:57;;;;;;;0.10;0.10;;;;;;;-145.06;100.00;63404.56;10396224;28;20261;-73
2023/07/04 18:59:57;;;;;;;0.10;0.10;;;;;;;-145.06;100.00;63404.56;10403037;28;20017;-73
2023/07/04 19:04:58;;;;;;;0.10;0.10;;;;;;;-145.06;100.00;63404.56;10400451;28;20025;-73
2023/07/04 19:09:59;;;;;;;0.10;0.10;;;;;;;-145.06;100.00;63404.56;10398793;28;20033;-73
2023/07/04 19:14:59;;;;;;;0.10;0.10;;;;;;;-145.06;100.00;63404.56;10402910;28;20524;-73
2023/07/04 19:19:59;;;;;;;0.10;0.10;;;;;;;-145.06;100.00;63404.56;10395671;28;20433;-73
2023/07/04 19:25:00;;;;;;;0.10;0.10;;;;;;;-145.06;100.00;63404.56;10388345;28;20354;-73
2023/07/04 19:30:00;;;;;;;0.10;0.10;;;;;;;-145.06;100.00;63404.56;10394419;28;20029;-73
2023/07/04 19:35:00;;;;;;;0.10;0.10;;;;;;;-145.06;100.00;63404.56;10402467;28;20260;-73
2023/07/04 19:40:01;;;;;;;0.10;0.10;;;;;;;-145.06;100.00;63404.56;10392711;28;20109;-73
2023/07/04 19:45:01;;;;;;;0.10;0.10;;;;;;;-145.06;100.00;63404.56;10393435;28;20018;-73
2023/07/04 19:50:03;;;;;;;0.10;0.10;;;;;;;-145.06;100.00;63404.56;10379107;28;20284;-73
2023/07/04 19:55:04;;;;;;;0.10;0.10;;;;;;;-145.06;100.00;63404.56;10394876;28;20021;-72
2023/07/04 20:00:05;;;;;;;0.10;0.10;;;;;;;-145.06;100.00;63404.56;10398375;28;20482;-73
2023/07/04 20:05:06;;;;;;;0.08;0.08;;;;;;;-145.06;100.00;63404.56;10389348;28;20025;-73
2023/07/04 20:10:07;;;;;;;0.10;0.10;;;;;;;-145.06;100.00;63404.56;10395345;28;20017;-73
2023/07/04 20:15:07;;;;;;;0.10;0.10;;;;;;;-145.06;100.00;63404.56;10387186;28;20026;-73
2023/07/04 20:20:09;;;;;;;0.10;0.10;;;;;;;-145.06;100.00;63404.56;10401669;28;20018;-73
2023/07/04 20:25:09;;;;;;;0.10;0.10;;;;;;;-145.06;100.00;63404.56;10376599;28;20018;-73
2023/07/04 20:30:10;;;;;;;0.10;0.10;;;;;;;-145.06;100.00;63404.56;10391619;28;20018;-73
2023/07/04 20:35:10;;;;;;;0.00;0.00;;;;;;;-145.06;100.00;63404.56;10386025;28;20248;-72
2023/07/04 20:40:11;;;;;;;0.10;0.10;;;;;;;-145.06;100.00;63404.56;10396851;28;20022;-73
2023/07/04 20:45:11;;;;;;;0.10;0.10;;;;;;;-145.06;100.00;63404.56;10391304;28;20045;-73
2023/07/04 20:50:11;;;;;;;0.10;0.10;;;;;;;-145.06;100.00;63404.56;10369711;28;20482;-73
2023/07/04 20:55:12;;;;;;;0.10;0.10;;;;;;;-145.06;100.00;63404.56;10385370;28;20401;-72
2023/07/04 21:00:17;;;;;;;0.10;0.10;;;;;;;-145.06;100.00;63404.56;10408533;22;20042;-74
2023/07/04 21:05:17;;;;;;;0.10;0.10;;;;;;;-145.06;100.00;63404.56;10374847;28;20132;-75
2023/07/04 21:10:18;;;;;;;0.10;0.10;;;;;;;-145.06;100.00;63404.56;10373750;28;20153;-75
2023/07/04 21:15:19;;;;;;;0.10;0.10;;;;;;;-145.06;100.00;63404.56;10380351;28;20112;-75
2023/07/04 21:20:20;;;;;;;0.10;0.10;;;;;;;-145.06;100.00;63404.56;10411536;28;20109;-74
2023/07/04 21:25:20;;;;;;;0.03;0.03;;;;;;;-145.06;100.00;63404.56;10388631;28;20018;-74
2023/07/04 21:30:21;;;;;;;0.10;0.10;;;;;;;-145.06;100.00;63404.56;10352234;28;20028;-74
2023/07/04 21:35:21;;;;;;;0.00;0.00;;;;;;;-145.06;100.00;63404.56;10370036;28;20034;-74
2023/07/04 21:40:22;;;;;;;0.10;0.10;;;;;;;-145.06;100.00;63404.56;10370614;28;20022;-74
2023/07/04 21:45:22;;;;;;;0.10;0.10;;;;;;;-145.06;100.00;63404.56;10401266;28;20128;-74
2023/07/04 21:50:22;;;;;;;0.10;0.10;;;;;;;-145.06;100.00;63404.56;10373412;28;20458;-74
2023/07/04 21:55:23;;;;;;;0.10;0.10;;;;;;;-145.06;100.00;63404.56;10384483;28;20021;-74
2023/07/04 22:00:23;;;;;;;0.10;0.10;;;;;;;-145.06;100.00;63404.56;10369529;28;20463;-74
2023/07/04 22:05:23;;;;;;;0.00;0.00;;;;;;;-145.06;100.00;63404.56;10361239;28;20103;-74
2023/07/04 22:10:24;;;;;;;0.10;0.10;;;;;;;-145.06;100.00;63404.56;10355727;28;20339;-74
2023/07/04 22:15:24;;;;;;;0.03;0.03;;;;;;;-145.06;100.00;63404.56;10373872;28;20025;-74
2023/07/04 22:20:24;;;;;;;0.10;0.10;;;;;;;-145.06;100.00;63404.56;10353721;28;20408;-74
2023/07/04 22:25:25;;;;;;;0.10;0.10;;;;;;;-145.06;100.00;63404.56;10334271;28;20034;-74
2023/07/04 22:30:25;;;;;;;0.10;0.10;;;;;;;-145.06;100.00;63404.56;10338503;28;20038;-74
2023/07/04 22:35:26;;;;;;;0.10;0.10;;;;;;;-145.06;100.00;63404.56;10377807;28;20117;-74
2023/07/04 22:40:26;;;;;;;0.10;0.10;;;;;;;-145.06;100.00;63404.56;10360009;28;20471;-74